sensor_id;sensor_type;location;lat;lon;timestamp;P1;durP1;ratioP1;P2;durP2;ratioP2
14907;SDS011;7545;52.092;7.006;2023-11-21T00:02:14;15.17;;;8.07;;
14907;SDS011;7545;52.092;7.006;2023-11-21T00:04:40;14.15;;;8.38;;
14907;SDS011;7545;52.092;7.006;2023-11-21T00:07:05;17.65;;;8.70;;
14907;SDS011;7545;52.092;7.006;2023-11-21T00:09:34;11.50;;;8.17;;
14907;SDS011;7545;52.092;7.006;2023-11-21T00:12:01;14.55;;;7.97;;
14907;SDS011;7545;52.092;7.006;2023-11-21T00:14:27;18.88;;;8.88;;
14907;SDS011;7545;52.092;7.006;2023-11-21T00:16:53;13.33;;;7.47;;
14907;SDS011;7545;52.092;7.006;2023-11-21T00:19:19;11.40;;;7.78;;
14907;SDS011;7545;52.092;7.006;2023-11-21T00:21:44;16.05;;;9.43;;
14907;SDS011;7545;52.092;7.006;2023-11-21T00:24:11;15.93;;;8.83;;
14907;SDS011;7545;52.092;7.006;2023-11-21T00:26:38;15.55;;;8.90;;
14907;SDS011;7545;52.092;7.006;2023-11-21T00:29:05;13.07;;;8.37;;
14907;SDS011;7545;52.092;7.006;2023-11-21T00:31:33;13.52;;;8.38;;
14907;SDS011;7545;52.092;7.006;2023-11-21T00:34:01;13.53;;;8.53;;
14907;SDS011;7545;52.092;7.006;2023-11-21T00:36:28;18.57;;;9.17;;
14907;SDS011;7545;52.092;7.006;2023-11-21T00:38:54;15.70;;;9.63;;
14907;SDS011;7545;52.092;7.006;2023-11-21T00:41:21;15.77;;;9.50;;
14907;SDS011;7545;52.092;7.006;2023-11-21T00:43:46;17.03;;;9.07;;
14907;SDS011;7545;52.092;7.006;2023-11-21T00:46:12;15.83;;;9.80;;
14907;SDS011;7545;52.092;7.006;2023-11-21T00:48:38;20.20;;;10.97;;
14907;SDS011;7545;52.092;7.006;2023-11-21T00:51:04;18.43;;;10.87;;
14907;SDS011;7545;52.092;7.006;2023-11-21T00:53:31;17.43;;;10.87;;
14907;SDS011;7545;52.092;7.006;2023-11-21T00:55:56;18.03;;;9.80;;
14907;SDS011;7545;52.092;7.006;2023-11-21T00:58:25;20.80;;;11.83;;
14907;SDS011;7545;52.092;7.006;2023-11-21T01:00:51;21.73;;;11.07;;
14907;SDS011;7545;52.092;7.006;2023-11-21T01:03:17;20.00;;;10.80;;
14907;SDS011;7545;52.092;7.006;2023-11-21T01:05:42;19.40;;;10.97;;
14907;SDS011;7545;52.092;7.006;2023-11-21T01:08:08;18.30;;;11.30;;
14907;SDS011;7545;52.092;7.006;2023-11-21T01:10:34;21.37;;;11.60;;
14907;SDS011;7545;52.092;7.006;2023-11-21T01:13:00;20.03;;;11.77;;
14907;SDS011;7545;52.092;7.006;2023-11-21T01:15:25;20.60;;;11.10;;
14907;SDS011;7545;52.092;7.006;2023-11-21T01:17:52;21.27;;;11.83;;
14907;SDS011;7545;52.092;7.006;2023-11-21T01:20:18;18.17;;;10.97;;
14907;SDS011;7545;52.092;7.006;2023-11-21T01:22:43;19.77;;;11.43;;
14907;SDS011;7545;52.092;7.006;2023-11-21T01:25:09;19.33;;;11.53;;
14907;SDS011;7545;52.092;7.006;2023-11-21T01:27:35;25.87;;;12.17;;
14907;SDS011;7545;52.092;7.006;2023-11-21T01:30:02;19.87;;;10.90;;
14907;SDS011;7545;52.092;7.006;2023-11-21T01:32:28;21.43;;;11.27;;
14907;SDS011;7545;52.092;7.006;2023-11-21T01:34:54;19.10;;;10.97;;
14907;SDS011;7545;52.092;7.006;2023-11-21T01:37:20;24.83;;;12.37;;
14907;SDS011;7545;52.092;7.006;2023-11-21T01:39:46;20.00;;;11.20;;
14907;SDS011;7545;52.092;7.006;2023-11-21T01:42:12;23.00;;;12.37;;
14907;SDS011;7545;52.092;7.006;2023-11-21T01:44:38;24.87;;;12.23;;
14907;SDS011;7545;52.092;7.006;2023-11-21T01:47:07;21.70;;;12.27;;
14907;SDS011;7545;52.092;7.006;2023-11-21T01:49:34;22.83;;;12.37;;
14907;SDS011;7545;52.092;7.006;2023-11-21T01:52:01;19.27;;;11.87;;
14907;SDS011;7545;52.092;7.006;2023-11-21T01:54:27;22.00;;;11.10;;
14907;SDS011;7545;52.092;7.006;2023-11-21T01:56:56;19.50;;;12.07;;
14907;SDS011;7545;52.092;7.006;2023-11-21T01:59:28;23.73;;;11.97;;
14907;SDS011;7545;52.092;7.006;2023-11-21T02:02:02;17.63;;;11.13;;
14907;SDS011;7545;52.092;7.006;2023-11-21T02:04:33;28.63;;;13.07;;
14907;SDS011;7545;52.092;7.006;2023-11-21T02:07:00;24.43;;;12.33;;
14907;SDS011;7545;52.092;7.006;2023-11-21T02:12:48;21.60;;;12.10;;
14907;SDS011;7545;52.092;7.006;2023-11-21T02:15:17;24.03;;;12.97;;
14907;SDS011;7545;52.092;7.006;2023-11-21T02:17:45;27.57;;;13.53;;
14907;SDS011;7545;52.092;7.006;2023-11-21T02:20:12;24.60;;;13.00;;
14907;SDS011;7545;52.092;7.006;2023-11-21T02:22:43;28.15;;;14.25;;
14907;SDS011;7545;52.092;7.006;2023-11-21T02:25:10;26.03;;;13.83;;
14907;SDS011;7545;52.092;7.006;2023-11-21T02:27:36;26.77;;;13.87;;
14907;SDS011;7545;52.092;7.006;2023-11-21T02:30:02;24.98;;;14.25;;
14907;SDS011;7545;52.092;7.006;2023-11-21T02:32:29;29.13;;;15.00;;
14907;SDS011;7545;52.092;7.006;2023-11-21T02:34:56;29.40;;;14.23;;
14907;SDS011;7545;52.092;7.006;2023-11-21T02:37:25;29.73;;;14.27;;
14907;SDS011;7545;52.092;7.006;2023-11-21T02:39:51;29.73;;;14.73;;
14907;SDS011;7545;52.092;7.006;2023-11-21T02:42:17;30.27;;;15.23;;
14907;SDS011;7545;52.092;7.006;2023-11-21T02:44:43;30.90;;;15.63;;
14907;SDS011;7545;52.092;7.006;2023-11-21T02:47:09;32.47;;;14.40;;
14907;SDS011;7545;52.092;7.006;2023-11-21T02:49:35;40.17;;;15.50;;
14907;SDS011;7545;52.092;7.006;2023-11-21T02:52:00;27.57;;;14.83;;
14907;SDS011;7545;52.092;7.006;2023-11-21T02:54:27;35.53;;;16.20;;
14907;SDS011;7545;52.092;7.006;2023-11-21T02:56:52;33.87;;;16.13;;
14907;SDS011;7545;52.092;7.006;2023-11-21T02:59:18;31.57;;;14.97;;
14907;SDS011;7545;52.092;7.006;2023-11-21T03:01:44;39.60;;;15.90;;
14907;SDS011;7545;52.092;7.006;2023-11-21T03:04:11;34.00;;;15.50;;
14907;SDS011;7545;52.092;7.006;2023-11-21T03:06:42;35.33;;;16.17;;
14907;SDS011;7545;52.092;7.006;2023-11-21T03:09:09;31.47;;;16.17;;
14907;SDS011;7545;52.092;7.006;2023-11-21T03:11:34;35.03;;;17.97;;
14907;SDS011;7545;52.092;7.006;2023-11-21T03:14:00;38.90;;;16.90;;
14907;SDS011;7545;52.092;7.006;2023-11-21T03:16:26;37.27;;;17.87;;
14907;SDS011;7545;52.092;7.006;2023-11-21T03:18:51;34.83;;;15.03;;
14907;SDS011;7545;52.092;7.006;2023-11-21T03:21:17;30.15;;;16.25;;
14907;SDS011;7545;52.092;7.006;2023-11-21T03:23:43;30.65;;;16.15;;
14907;SDS011;7545;52.092;7.006;2023-11-21T03:26:11;32.35;;;16.17;;
14907;SDS011;7545;52.092;7.006;2023-11-21T03:28:37;32.85;;;16.73;;
14907;SDS011;7545;52.092;7.006;2023-11-21T03:31:03;36.58;;;15.88;;
14907;SDS011;7545;52.092;7.006;2023-11-21T03:33:29;39.40;;;17.77;;
14907;SDS011;7545;52.092;7.006;2023-11-21T03:35:54;31.50;;;15.82;;
14907;SDS011;7545;52.092;7.006;2023-11-21T03:38:20;27.77;;;15.87;;
14907;SDS011;7545;52.092;7.006;2023-11-21T03:40:46;36.17;;;17.23;;
14907;SDS011;7545;52.092;7.006;2023-11-21T03:43:12;37.60;;;17.20;;
14907;SDS011;7545;52.092;7.006;2023-11-21T03:45:38;28.77;;;16.02;;
14907;SDS011;7545;52.092;7.006;2023-11-21T03:48:05;34.97;;;18.13;;
14907;SDS011;7545;52.092;7.006;2023-11-21T03:50:31;31.70;;;16.20;;
14907;SDS011;7545;52.092;7.006;2023-11-21T03:52:57;28.67;;;15.60;;
14907;SDS011;7545;52.092;7.006;2023-11-21T03:55:22;35.87;;;16.80;;
14907;SDS011;7545;52.092;7.006;2023-11-21T03:57:51;31.55;;;16.88;;
14907;SDS011;7545;52.092;7.006;2023-11-21T04:00:17;26.23;;;14.67;;
14907;SDS011;7545;52.092;7.006;2023-11-21T04:02:45;34.33;;;16.65;;
14907;SDS011;7545;52.092;7.006;2023-11-21T04:05:10;32.85;;;16.48;;
14907;SDS011;7545;52.092;7.006;2023-11-21T04:07:37;35.15;;;16.45;;
14907;SDS011;7545;52.092;7.006;2023-11-21T04:10:03;28.60;;;16.25;;
14907;SDS011;7545;52.092;7.006;2023-11-21T04:12:33;30.73;;;16.27;;
14907;SDS011;7545;52.092;7.006;2023-11-21T04:14:59;30.00;;;15.13;;
14907;SDS011;7545;52.092;7.006;2023-11-21T04:17:25;33.90;;;15.43;;
14907;SDS011;7545;52.092;7.006;2023-11-21T04:19:51;34.30;;;16.70;;
14907;SDS011;7545;52.092;7.006;2023-11-21T04:22:16;28.60;;;16.20;;
14907;SDS011;7545;52.092;7.006;2023-11-21T04:24:42;30.17;;;16.33;;
14907;SDS011;7545;52.092;7.006;2023-11-21T04:27:10;28.50;;;15.77;;
14907;SDS011;7545;52.092;7.006;2023-11-21T04:29:36;33.63;;;16.87;;
14907;SDS011;7545;52.092;7.006;2023-11-21T04:32:01;36.92;;;17.20;;
14907;SDS011;7545;52.092;7.006;2023-11-21T04:34:27;32.27;;;16.37;;
14907;SDS011;7545;52.092;7.006;2023-11-21T04:36:56;32.58;;;15.68;;
14907;SDS011;7545;52.092;7.006;2023-11-21T04:39:22;40.15;;;17.17;;
14907;SDS011;7545;52.092;7.006;2023-11-21T04:41:47;30.73;;;16.02;;
14907;SDS011;7545;52.092;7.006;2023-11-21T04:44:13;26.70;;;14.57;;
14907;SDS011;7545;52.092;7.006;2023-11-21T04:46:38;26.33;;;14.17;;
14907;SDS011;7545;52.092;7.006;2023-11-21T04:49:04;26.90;;;14.98;;
14907;SDS011;7545;52.092;7.006;2023-11-21T04:51:29;26.77;;;14.07;;
14907;SDS011;7545;52.092;7.006;2023-11-21T04:53:57;30.92;;;15.27;;
14907;SDS011;7545;52.092;7.006;2023-11-21T04:56:22;33.50;;;16.30;;
14907;SDS011;7545;52.092;7.006;2023-11-21T04:58:48;31.40;;;15.00;;
14907;SDS011;7545;52.092;7.006;2023-11-21T05:01:13;30.17;;;15.43;;
14907;SDS011;7545;52.092;7.006;2023-11-21T05:03:39;30.23;;;14.53;;
14907;SDS011;7545;52.092;7.006;2023-11-21T05:06:05;30.47;;;14.27;;
14907;SDS011;7545;52.092;7.006;2023-11-21T05:08:31;27.67;;;14.73;;
14907;SDS011;7545;52.092;7.006;2023-11-21T05:10:57;29.33;;;15.68;;
14907;SDS011;7545;52.092;7.006;2023-11-21T05:13:22;34.45;;;16.05;;
14907;SDS011;7545;52.092;7.006;2023-11-21T05:15:52;32.38;;;15.25;;
14907;SDS011;7545;52.092;7.006;2023-11-21T05:18:23;31.10;;;16.67;;
14907;SDS011;7545;52.092;7.006;2023-11-21T05:20:52;26.43;;;15.93;;
14907;SDS011;7545;52.092;7.006;2023-11-21T05:23:18;31.27;;;14.60;;
14907;SDS011;7545;52.092;7.006;2023-11-21T05:25:44;32.20;;;14.63;;
14907;SDS011;7545;52.092;7.006;2023-11-21T05:28:11;29.37;;;14.93;;
14907;SDS011;7545;52.092;7.006;2023-11-21T05:30:37;29.53;;;15.73;;
14907;SDS011;7545;52.092;7.006;2023-11-21T05:33:04;33.28;;;14.60;;
14907;SDS011;7545;52.092;7.006;2023-11-21T05:35:30;28.53;;;14.43;;
14907;SDS011;7545;52.092;7.006;2023-11-21T05:37:56;30.83;;;16.37;;
14907;SDS011;7545;52.092;7.006;2023-11-21T05:40:22;31.40;;;15.23;;
14907;SDS011;7545;52.092;7.006;2023-11-21T05:42:48;34.60;;;15.37;;
14907;SDS011;7545;52.092;7.006;2023-11-21T05:45:13;28.27;;;15.43;;
14907;SDS011;7545;52.092;7.006;2023-11-21T05:47:41;26.85;;;16.30;;
14907;SDS011;7545;52.092;7.006;2023-11-21T05:50:08;34.38;;;16.27;;
14907;SDS011;7545;52.092;7.006;2023-11-21T05:52:37;31.97;;;16.17;;
14907;SDS011;7545;52.092;7.006;2023-11-21T05:55:03;32.00;;;15.80;;
14907;SDS011;7545;52.092;7.006;2023-11-21T05:57:35;25.45;;;14.65;;
14907;SDS011;7545;52.092;7.006;2023-11-21T06:00:06;28.00;;;14.48;;
14907;SDS011;7545;52.092;7.006;2023-11-21T06:02:39;27.67;;;14.65;;
14907;SDS011;7545;52.092;7.006;2023-11-21T06:05:06;25.25;;;14.88;;
14907;SDS011;7545;52.092;7.006;2023-11-21T06:07:32;30.05;;;15.18;;
14907;SDS011;7545;52.092;7.006;2023-11-21T06:09:58;28.02;;;15.38;;
14907;SDS011;7545;52.092;7.006;2023-11-21T06:12:24;29.20;;;15.63;;
14907;SDS011;7545;52.092;7.006;2023-11-21T06:14:50;25.40;;;14.03;;
14907;SDS011;7545;52.092;7.006;2023-11-21T06:17:16;25.97;;;14.17;;
14907;SDS011;7545;52.092;7.006;2023-11-21T06:19:42;21.50;;;13.23;;
14907;SDS011;7545;52.092;7.006;2023-11-21T06:22:10;30.23;;;14.27;;
14907;SDS011;7545;52.092;7.006;2023-11-21T06:24:36;22.38;;;13.65;;
14907;SDS011;7545;52.092;7.006;2023-11-21T06:27:03;25.00;;;13.43;;
14907;SDS011;7545;52.092;7.006;2023-11-21T06:29:29;28.93;;;12.97;;
14907;SDS011;7545;52.092;7.006;2023-11-21T06:31:55;23.08;;;13.00;;
14907;SDS011;7545;52.092;7.006;2023-11-21T06:34:21;21.52;;;13.38;;
14907;SDS011;7545;52.092;7.006;2023-11-21T06:36:47;21.00;;;12.98;;
14907;SDS011;7545;52.092;7.006;2023-11-21T06:39:12;19.83;;;11.93;;
14907;SDS011;7545;52.092;7.006;2023-11-21T06:41:40;22.20;;;11.97;;
14907;SDS011;7545;52.092;7.006;2023-11-21T06:44:05;21.63;;;13.03;;
14907;SDS011;7545;52.092;7.006;2023-11-21T06:46:31;20.50;;;12.18;;
14907;SDS011;7545;52.092;7.006;2023-11-21T06:48:56;22.40;;;12.95;;
14907;SDS011;7545;52.092;7.006;2023-11-21T06:51:22;27.58;;;13.80;;
14907;SDS011;7545;52.092;7.006;2023-11-21T06:53:47;23.87;;;13.77;;
14907;SDS011;7545;52.092;7.006;2023-11-21T06:56:16;27.30;;;13.40;;
14907;SDS011;7545;52.092;7.006;2023-11-21T06:58:43;24.23;;;13.57;;
14907;SDS011;7545;52.092;7.006;2023-11-21T07:01:10;22.60;;;13.73;;
14907;SDS011;7545;52.092;7.006;2023-11-21T07:03:36;24.88;;;13.77;;
14907;SDS011;7545;52.092;7.006;2023-11-21T07:06:02;19.20;;;12.90;;
14907;SDS011;7545;52.092;7.006;2023-11-21T07:08:28;21.88;;;13.23;;
14907;SDS011;7545;52.092;7.006;2023-11-21T07:10:54;23.25;;;13.23;;
14907;SDS011;7545;52.092;7.006;2023-11-21T07:13:20;21.27;;;13.33;;
14907;SDS011;7545;52.092;7.006;2023-11-21T07:15:46;21.23;;;12.32;;
14907;SDS011;7545;52.092;7.006;2023-11-21T07:18:13;21.55;;;13.48;;
14907;SDS011;7545;52.092;7.006;2023-11-21T07:20:38;24.08;;;13.45;;
14907;SDS011;7545;52.092;7.006;2023-11-21T07:23:04;21.02;;;12.77;;
14907;SDS011;7545;52.092;7.006;2023-11-21T07:25:30;24.13;;;13.30;;
14907;SDS011;7545;52.092;7.006;2023-11-21T07:27:56;23.25;;;12.48;;
14907;SDS011;7545;52.092;7.006;2023-11-21T07:30:22;23.60;;;13.65;;
14907;SDS011;7545;52.092;7.006;2023-11-21T07:32:48;21.20;;;13.35;;
14907;SDS011;7545;52.092;7.006;2023-11-21T07:35:14;20.67;;;12.53;;
14907;SDS011;7545;52.092;7.006;2023-11-21T07:37:39;19.00;;;11.75;;
14907;SDS011;7545;52.092;7.006;2023-11-21T07:40:05;20.27;;;13.00;;
14907;SDS011;7545;52.092;7.006;2023-11-21T07:42:33;22.33;;;12.80;;
14907;SDS011;7545;52.092;7.006;2023-11-21T07:44:59;21.45;;;12.07;;
14907;SDS011;7545;52.092;7.006;2023-11-21T07:47:25;19.20;;;11.97;;
14907;SDS011;7545;52.092;7.006;2023-11-21T07:49:52;19.90;;;12.98;;
14907;SDS011;7545;52.092;7.006;2023-11-21T07:52:18;21.30;;;11.95;;
14907;SDS011;7545;52.092;7.006;2023-11-21T07:54:46;22.58;;;12.35;;
14907;SDS011;7545;52.092;7.006;2023-11-21T07:57:11;21.75;;;12.98;;
14907;SDS011;7545;52.092;7.006;2023-11-21T07:59:38;18.35;;;11.30;;
14907;SDS011;7545;52.092;7.006;2023-11-21T08:02:05;17.42;;;11.27;;
14907;SDS011;7545;52.092;7.006;2023-11-21T08:04:31;23.37;;;12.70;;
14907;SDS011;7545;52.092;7.006;2023-11-21T08:06:57;19.47;;;12.30;;
14907;SDS011;7545;52.092;7.006;2023-11-21T08:09:23;21.00;;;11.75;;
14907;SDS011;7545;52.092;7.006;2023-11-21T08:11:49;22.02;;;13.25;;
14907;SDS011;7545;52.092;7.006;2023-11-21T08:14:15;21.00;;;12.63;;
14907;SDS011;7545;52.092;7.006;2023-11-21T08:16:40;21.13;;;12.40;;
14907;SDS011;7545;52.092;7.006;2023-11-21T08:19:06;20.98;;;12.70;;
14907;SDS011;7545;52.092;7.006;2023-11-21T08:21:33;19.17;;;12.00;;
14907;SDS011;7545;52.092;7.006;2023-11-21T08:23:59;21.40;;;12.77;;
14907;SDS011;7545;52.092;7.006;2023-11-21T08:26:25;23.87;;;12.57;;
14907;SDS011;7545;52.092;7.006;2023-11-21T08:28:51;24.23;;;14.13;;
14907;SDS011;7545;52.092;7.006;2023-11-21T08:31:27;24.30;;;13.70;;
14907;SDS011;7545;52.092;7.006;2023-11-21T08:33:53;27.88;;;13.45;;
14907;SDS011;7545;52.092;7.006;2023-11-21T08:36:20;25.38;;;13.57;;
14907;SDS011;7545;52.092;7.006;2023-11-21T08:38:48;28.73;;;14.07;;
14907;SDS011;7545;52.092;7.006;2023-11-21T08:41:14;24.75;;;14.70;;
14907;SDS011;7545;52.092;7.006;2023-11-21T08:43:41;28.85;;;13.65;;
14907;SDS011;7545;52.092;7.006;2023-11-21T08:46:07;32.40;;;15.80;;
14907;SDS011;7545;52.092;7.006;2023-11-21T08:48:36;29.70;;;14.48;;
14907;SDS011;7545;52.092;7.006;2023-11-21T08:51:02;28.85;;;14.98;;
14907;SDS011;7545;52.092;7.006;2023-11-21T08:53:29;22.60;;;13.57;;
14907;SDS011;7545;52.092;7.006;2023-11-21T08:55:55;23.95;;;13.10;;
14907;SDS011;7545;52.092;7.006;2023-11-21T08:58:21;27.10;;;13.45;;
14907;SDS011;7545;52.092;7.006;2023-11-21T09:00:47;27.50;;;14.35;;
14907;SDS011;7545;52.092;7.006;2023-11-21T09:03:13;24.53;;;13.00;;
14907;SDS011;7545;52.092;7.006;2023-11-21T09:05:38;28.23;;;14.03;;
14907;SDS011;7545;52.092;7.006;2023-11-21T09:08:04;26.05;;;13.15;;
14907;SDS011;7545;52.092;7.006;2023-11-21T09:10:30;21.33;;;12.60;;
14907;SDS011;7545;52.092;7.006;2023-11-21T09:12:57;21.95;;;13.02;;
14907;SDS011;7545;52.092;7.006;2023-11-21T09:15:24;28.20;;;14.00;;
14907;SDS011;7545;52.092;7.006;2023-11-21T09:17:50;23.10;;;13.88;;
14907;SDS011;7545;52.092;7.006;2023-11-21T09:20:15;24.70;;;13.40;;
14907;SDS011;7545;52.092;7.006;2023-11-21T09:22:41;22.08;;;12.43;;
14907;SDS011;7545;52.092;7.006;2023-11-21T09:25:09;20.10;;;12.32;;
14907;SDS011;7545;52.092;7.006;2023-11-21T09:27:35;20.65;;;13.10;;
14907;SDS011;7545;52.092;7.006;2023-11-21T09:30:01;20.15;;;12.80;;
14907;SDS011;7545;52.092;7.006;2023-11-21T09:32:26;23.30;;;12.82;;
14907;SDS011;7545;52.092;7.006;2023-11-21T09:34:52;22.70;;;13.35;;
14907;SDS011;7545;52.092;7.006;2023-11-21T09:37:26;22.38;;;12.88;;
14907;SDS011;7545;52.092;7.006;2023-11-21T09:39:52;22.13;;;11.80;;
14907;SDS011;7545;52.092;7.006;2023-11-21T09:42:25;20.33;;;12.97;;
14907;SDS011;7545;52.092;7.006;2023-11-21T09:45:00;24.30;;;12.93;;
14907;SDS011;7545;52.092;7.006;2023-11-21T09:47:30;23.20;;;12.47;;
14907;SDS011;7545;52.092;7.006;2023-11-21T09:50:00;23.75;;;13.95;;
14907;SDS011;7545;52.092;7.006;2023-11-21T09:52:27;23.75;;;15.00;;
14907;SDS011;7545;52.092;7.006;2023-11-21T09:54:53;23.20;;;13.82;;
14907;SDS011;7545;52.092;7.006;2023-11-21T09:57:22;24.48;;;14.18;;
14907;SDS011;7545;52.092;7.006;2023-11-21T09:59:52;23.38;;;12.85;;
14907;SDS011;7545;52.092;7.006;2023-11-21T10:02:25;19.55;;;12.77;;
14907;SDS011;7545;52.092;7.006;2023-11-21T10:04:54;22.02;;;12.00;;
14907;SDS011;7545;52.092;7.006;2023-11-21T10:07:20;24.05;;;14.63;;
14907;SDS011;7545;52.092;7.006;2023-11-21T10:09:46;23.17;;;12.90;;
14907;SDS011;7545;52.092;7.006;2023-11-21T10:12:13;25.20;;;13.98;;
14907;SDS011;7545;52.092;7.006;2023-11-21T10:14:41;22.70;;;14.77;;
14907;SDS011;7545;52.092;7.006;2023-11-21T10:17:07;24.30;;;14.52;;
14907;SDS011;7545;52.092;7.006;2023-11-21T10:19:37;20.77;;;13.57;;
14907;SDS011;7545;52.092;7.006;2023-11-21T10:22:04;23.10;;;13.13;;
14907;SDS011;7545;52.092;7.006;2023-11-21T10:24:31;22.83;;;12.77;;
14907;SDS011;7545;52.092;7.006;2023-11-21T10:26:57;21.42;;;12.70;;
14907;SDS011;7545;52.092;7.006;2023-11-21T10:29:23;19.67;;;11.40;;
14907;SDS011;7545;52.092;7.006;2023-11-21T10:31:51;20.55;;;11.82;;
14907;SDS011;7545;52.092;7.006;2023-11-21T10:34:20;21.77;;;11.63;;
14907;SDS011;7545;52.092;7.006;2023-11-21T10:36:46;19.92;;;11.48;;
14907;SDS011;7545;52.092;7.006;2023-11-21T10:39:18;19.48;;;12.10;;
14907;SDS011;7545;52.092;7.006;2023-11-21T10:41:48;15.57;;;9.85;;
14907;SDS011;7545;52.092;7.006;2023-11-21T10:44:14;20.15;;;11.27;;
14907;SDS011;7545;52.092;7.006;2023-11-21T10:46:52;15.88;;;10.60;;
14907;SDS011;7545;52.092;7.006;2023-11-21T10:49:25;18.73;;;9.98;;
14907;SDS011;7545;52.092;7.006;2023-11-21T10:51:52;18.88;;;9.25;;
14907;SDS011;7545;52.092;7.006;2023-11-21T10:54:19;15.52;;;9.77;;
14907;SDS011;7545;52.092;7.006;2023-11-21T10:56:46;15.02;;;8.93;;
14907;SDS011;7545;52.092;7.006;2023-11-21T10:59:18;16.23;;;10.10;;
14907;SDS011;7545;52.092;7.006;2023-11-21T11:01:46;17.50;;;10.18;;
14907;SDS011;7545;52.092;7.006;2023-11-21T11:04:15;14.35;;;9.02;;
14907;SDS011;7545;52.092;7.006;2023-11-21T11:06:43;15.82;;;9.30;;
14907;SDS011;7545;52.092;7.006;2023-11-21T11:09:13;16.60;;;9.32;;
14907;SDS011;7545;52.092;7.006;2023-11-21T11:11:40;14.10;;;9.27;;
14907;SDS011;7545;52.092;7.006;2023-11-21T11:14:07;17.65;;;9.25;;
14907;SDS011;7545;52.092;7.006;2023-11-21T11:16:36;17.10;;;9.68;;
14907;SDS011;7545;52.092;7.006;2023-11-21T11:19:04;18.80;;;9.73;;
14907;SDS011;7545;52.092;7.006;2023-11-21T11:27:28;14.68;;;8.20;;
14907;SDS011;7545;52.092;7.006;2023-11-21T11:38:36;14.73;;;8.25;;
14907;SDS011;7545;52.092;7.006;2023-11-21T11:41:03;15.30;;;9.05;;
14907;SDS011;7545;52.092;7.006;2023-11-21T11:43:29;13.30;;;8.45;;
14907;SDS011;7545;52.092;7.006;2023-11-21T11:45:58;13.43;;;7.35;;
14907;SDS011;7545;52.092;7.006;2023-11-21T11:48:24;15.15;;;7.53;;
14907;SDS011;7545;52.092;7.006;2023-11-21T11:53:51;12.98;;;8.10;;
14907;SDS011;7545;52.092;7.006;2023-11-21T11:58:54;13.13;;;7.68;;
14907;SDS011;7545;52.092;7.006;2023-11-21T12:01:24;11.35;;;7.22;;
14907;SDS011;7545;52.092;7.006;2023-11-21T12:06:56;12.57;;;7.65;;
14907;SDS011;7545;52.092;7.006;2023-11-21T12:09:24;10.75;;;6.55;;
14907;SDS011;7545;52.092;7.006;2023-11-21T12:11:51;14.63;;;7.47;;
14907;SDS011;7545;52.092;7.006;2023-11-21T12:14:17;14.32;;;7.03;;
14907;SDS011;7545;52.092;7.006;2023-11-21T12:16:43;15.60;;;6.88;;
14907;SDS011;7545;52.092;7.006;2023-11-21T12:19:12;14.60;;;7.35;;
14907;SDS011;7545;52.092;7.006;2023-11-21T12:21:37;13.45;;;5.95;;
14907;SDS011;7545;52.092;7.006;2023-11-21T12:24:06;12.52;;;6.97;;
14907;SDS011;7545;52.092;7.006;2023-11-21T12:26:34;11.23;;;6.85;;
14907;SDS011;7545;52.092;7.006;2023-11-21T12:29:01;10.80;;;6.90;;
14907;SDS011;7545;52.092;7.006;2023-11-21T12:31:29;11.27;;;6.60;;
14907;SDS011;7545;52.092;7.006;2023-11-21T12:33:55;11.75;;;6.72;;
14907;SDS011;7545;52.092;7.006;2023-11-21T12:36:21;8.93;;;5.80;;
14907;SDS011;7545;52.092;7.006;2023-11-21T12:38:47;9.65;;;5.68;;
14907;SDS011;7545;52.092;7.006;2023-11-21T12:41:12;14.23;;;7.30;;
14907;SDS011;7545;52.092;7.006;2023-11-21T12:43:38;13.18;;;7.82;;
14907;SDS011;7545;52.092;7.006;2023-11-21T12:46:10;12.15;;;8.43;;
14907;SDS011;7545;52.092;7.006;2023-11-21T12:48:39;20.27;;;12.07;;
14907;SDS011;7545;52.092;7.006;2023-11-21T12:51:09;20.67;;;13.43;;
14907;SDS011;7545;52.092;7.006;2023-11-21T12:53:36;30.90;;;17.95;;
14907;SDS011;7545;52.092;7.006;2023-11-21T12:56:06;33.58;;;16.42;;
14907;SDS011;7545;52.092;7.006;2023-11-21T12:58:39;28.15;;;15.20;;
14907;SDS011;7545;52.092;7.006;2023-11-21T13:01:10;22.60;;;12.50;;
14907;SDS011;7545;52.092;7.006;2023-11-21T13:03:38;51.20;;;26.73;;
14907;SDS011;7545;52.092;7.006;2023-11-21T13:06:05;56.33;;;29.02;;
14907;SDS011;7545;52.092;7.006;2023-11-21T13:08:33;39.10;;;20.48;;
14907;SDS011;7545;52.092;7.006;2023-11-21T13:10:59;31.75;;;17.13;;
14907;SDS011;7545;52.092;7.006;2023-11-21T13:13:25;22.92;;;12.27;;
14907;SDS011;7545;52.092;7.006;2023-11-21T13:16:02;34.80;;;18.58;;
14907;SDS011;7545;52.092;7.006;2023-11-21T13:18:31;26.60;;;14.30;;
14907;SDS011;7545;52.092;7.006;2023-11-21T13:20:57;27.77;;;15.40;;
14907;SDS011;7545;52.092;7.006;2023-11-21T13:23:24;15.20;;;11.07;;
14907;SDS011;7545;52.092;7.006;2023-11-21T13:25:51;15.77;;;10.15;;
14907;SDS011;7545;52.092;7.006;2023-11-21T13:28:17;16.25;;;11.95;;
14907;SDS011;7545;52.092;7.006;2023-11-21T13:30:45;14.82;;;9.85;;
14907;SDS011;7545;52.092;7.006;2023-11-21T13:33:13;15.57;;;10.88;;
14907;SDS011;7545;52.092;7.006;2023-11-21T13:35:42;13.18;;;8.80;;
14907;SDS011;7545;52.092;7.006;2023-11-21T13:38:13;10.43;;;7.93;;
14907;SDS011;7545;52.092;7.006;2023-11-21T13:40:41;12.07;;;8.15;;
14907;SDS011;7545;52.092;7.006;2023-11-21T13:43:14;10.88;;;7.57;;
14907;SDS011;7545;52.092;7.006;2023-11-21T13:45:47;8.85;;;7.05;;
14907;SDS011;7545;52.092;7.006;2023-11-21T13:48:17;10.65;;;7.88;;
14907;SDS011;7545;52.092;7.006;2023-11-21T13:50:50;10.38;;;8.05;;
14907;SDS011;7545;52.092;7.006;2023-11-21T13:53:33;9.17;;;6.97;;
14907;SDS011;7545;52.092;7.006;2023-11-21T13:56:01;9.80;;;7.03;;
14907;SDS011;7545;52.092;7.006;2023-11-21T13:58:27;9.88;;;6.00;;
14907;SDS011;7545;52.092;7.006;2023-11-21T14:01:25;8.30;;;6.10;;
14907;SDS011;7545;52.092;7.006;2023-11-21T14:03:54;10.05;;;6.47;;
14907;SDS011;7545;52.092;7.006;2023-11-21T14:06:27;9.87;;;6.30;;
14907;SDS011;7545;52.092;7.006;2023-11-21T14:08:59;11.50;;;6.53;;
14907;SDS011;7545;52.092;7.006;2023-11-21T14:11:31;8.00;;;6.22;;
14907;SDS011;7545;52.092;7.006;2023-11-21T14:14:00;9.50;;;6.17;;
14907;SDS011;7545;52.092;7.006;2023-11-21T14:16:25;7.45;;;6.10;;
14907;SDS011;7545;52.092;7.006;2023-11-21T14:18:51;8.25;;;5.53;;
14907;SDS011;7545;52.092;7.006;2023-11-21T14:21:34;7.07;;;5.88;;
14907;SDS011;7545;52.092;7.006;2023-11-21T14:24:00;9.23;;;6.40;;
14907;SDS011;7545;52.092;7.006;2023-11-21T14:26:25;7.63;;;5.80;;
14907;SDS011;7545;52.092;7.006;2023-11-21T14:28:51;9.40;;;6.10;;
14907;SDS011;7545;52.092;7.006;2023-11-21T14:31:19;8.23;;;6.43;;
14907;SDS011;7545;52.092;7.006;2023-11-21T14:33:44;9.53;;;7.10;;
14907;SDS011;7545;52.092;7.006;2023-11-21T14:36:10;7.82;;;6.05;;
14907;SDS011;7545;52.092;7.006;2023-11-21T14:38:36;7.95;;;5.82;;
14907;SDS011;7545;52.092;7.006;2023-11-21T14:41:05;7.75;;;5.95;;
14907;SDS011;7545;52.092;7.006;2023-11-21T14:43:33;8.93;;;6.37;;
14907;SDS011;7545;52.092;7.006;2023-11-21T14:46:00;13.00;;;8.87;;
14907;SDS011;7545;52.092;7.006;2023-11-21T14:48:28;13.93;;;8.73;;
14907;SDS011;7545;52.092;7.006;2023-11-21T14:51:07;16.63;;;11.18;;
14907;SDS011;7545;52.092;7.006;2023-11-21T14:53:55;11.25;;;6.65;;
14907;SDS011;7545;52.092;7.006;2023-11-21T14:56:24;6.95;;;6.13;;
14907;SDS011;7545;52.092;7.006;2023-11-21T14:58:53;7.38;;;5.28;;
14907;SDS011;7545;52.092;7.006;2023-11-21T15:01:21;11.90;;;4.77;;
14907;SDS011;7545;52.092;7.006;2023-11-21T15:04:09;5.60;;;4.70;;
14907;SDS011;7545;52.092;7.006;2023-11-21T15:06:48;8.27;;;5.77;;